Time;durP1;ratioP1;P1;durP2;ratioP2;P2;SDS_P1;SDS_P2;PMS_P1;PMS_P2;Temp;Humidity;BMP_temperature;BMP_pressure;BME280_temperature;BME280_humidity;BME280_pressure;Samples;Min_cycle;Max_cycle;Signal;HPM_P1;HPM_P2
2021/04/16 00:01:46;;;;;;;4.40;3.37;;;8.00;90.60;;;;;;5090538;23;21015;-77
2021/04/16 00:03:48;;;;;;;4.03;3.20;;;7.90;90.70;;;;;;5090097;23;20457;-77
2021/04/16 00:05:51;;;;;;;3.60;3.30;;;7.90;90.70;;;;;;5089810;23;20530;-77
2021/04/16 00:07:54;;;;;;;6.53;3.30;;;8.00;90.80;;;;;;5089843;23;20442;-77
2021/04/16 00:09:56;;;;;;;4.50;3.23;;;8.00;90.80;;;;;;5090377;23;20465;-77
2021/04/16 00:11:58;;;;;;;4.10;3.20;;;8.00;90.90;;;;;;5090473;23;20686;-77
2021/04/16 00:14:00;;;;;;;5.00;3.63;;;8.00;91.00;;;;;;5089902;23;20492;-79
2021/04/16 00:16:03;;;;;;;4.33;3.23;;;8.00;91.20;;;;;;5089282;23;20454;-79
2021/04/16 00:18:06;;;;;;;4.80;3.60;;;7.90;91.20;;;;;;5097384;23;21006;-78
2021/04/16 00:20:11;;;;;;;4.80;3.37;;;7.90;91.20;;;;;;5090286;23;20486;-78
2021/04/16 00:22:13;;;;;;;3.67;3.30;;;7.90;91.40;;;;;;5090478;23;20466;-77
2021/04/16 00:24:16;;;;;;;4.00;3.20;;;7.90;91.50;;;;;;5090143;23;20455;-78
2021/04/16 00:26:18;;;;;;;5.20;3.13;;;7.90;91.70;;;;;;5089197;23;20974;-77
2021/04/16 00:28:21;;;;;;;4.30;3.60;;;7.90;91.70;;;;;;5089675;23;20428;-78
2021/04/16 00:30:26;;;;;;;5.27;3.40;;;7.90;91.70;;;;;;5089610;23;20427;-77
2021/04/16 00:32:28;;;;;;;4.07;3.13;;;7.90;91.70;;;;;;5090007;23;20421;-77
2021/04/16 00:34:30;;;;;;;5.10;3.73;;;7.90;91.60;;;;;;5089955;23;20935;-77
2021/04/16 00:36:32;;;;;;;5.10;3.30;;;8.00;91.70;;;;;;5089468;23;20421;-77
2021/04/16 00:38:34;;;;;;;87.57;47.53;;;8.00;91.70;;;;;;5089155;23;20436;-77
2021/04/16 00:40:40;;;;;;;86.90;45.73;;;8.00;92.00;;;;;;5090057;23;20425;-77
2021/04/16 00:42:42;;;;;;;75.17;40.70;;;8.00;92.00;;;;;;5090201;23;20426;-77
2021/04/16 00:44:44;;;;;;;17.63;11.73;;;8.00;92.10;;;;;;5090003;23;20429;-77
2021/04/16 00:46:50;;;;;;;7.83;5.53;;;8.00;92.40;;;;;;5089487;23;20520;-77
2021/04/16 00:48:57;;;;;;;9.13;4.80;;;8.00;92.60;;;;;;5089648;23;20508;-77
2021/04/16 00:51:03;;;;;;;6.00;4.33;;;8.00;92.80;;;;;;5090201;23;20457;-78
2021/04/16 00:53:04;;;;;;;7.57;4.23;;;8.00;92.90;;;;;;5090216;23;21326;-77
2021/04/16 00:55:08;;;;;;;6.33;3.83;;;8.00;93.10;;;;;;5088952;23;20458;-77
2021/04/16 00:57:13;;;;;;;6.67;3.33;;;8.00;93.10;;;;;;5089756;23;20541;-77
2021/04/16 00:59:16;;;;;;;6.03;3.37;;;8.00;93.40;;;;;;5089929;23;21298;-77
2021/04/16 01:01:18;;;;;;;5.10;3.97;;;7.90;93.50;;;;;;5089732;23;20513;-77
2021/04/16 01:03:21;;;;;;;3.83;3.17;;;8.00;93.60;;;;;;5087449;23;20515;-78
2021/04/16 01:05:23;;;;;;;4.43;3.37;;;8.00;93.70;;;;;;5089642;23;20437;-78
2021/04/16 01:07:25;;;;;;;4.10;3.20;;;8.00;93.90;;;;;;5089717;23;20436;-79
2021/04/16 01:09:27;;;;;;;4.63;3.70;;;8.00;94.00;;;;;;5090233;23;20429;-77
2021/04/16 01:11:29;;;;;;;6.23;3.53;;;8.00;94.10;;;;;;5098121;23;20418;-77
2021/04/16 01:13:34;;;;;;;3.80;3.37;;;8.00;94.20;;;;;;5090242;23;20507;-77
2021/04/16 01:15:39;;;;;;;5.40;3.47;;;8.00;94.30;;;;;;5090059;23;20429;-77
2021/04/16 01:17:42;;;;;;;5.10;3.80;;;7.90;94.40;;;;;;5089061;23;20430;-77
2021/04/16 01:19:51;;;;;;;3.63;3.20;;;7.90;94.50;;;;;;5090079;23;20426;-77
2021/04/16 01:21:59;;;;;;;3.80;3.40;;;7.90;94.50;;;;;;5090106;23;20436;-77
2021/04/16 01:24:12;;;;;;;4.70;3.03;;;7.80;94.60;;;;;;5090187;23;20424;-77
2021/04/16 01:26:17;;;;;;;6.23;3.60;;;7.80;94.60;;;;;;5090204;23;20954;-77
2021/04/16 01:28:19;;;;;;;11.00;4.40;;;7.80;94.70;;;;;;5089465;23;20439;-78
2021/04/16 01:30:26;;;;;;;5.77;3.33;;;7.80;94.60;;;;;;5089767;23;20469;-77
2021/04/16 01:32:30;;;;;;;5.13;3.03;;;7.80;94.70;;;;;;5090212;23;20429;-76
2021/04/16 01:34:33;;;;;;;4.40;3.60;;;7.80;94.90;;;;;;5090010;23;20489;-78
2021/04/16 01:36:35;;;;;;;5.50;3.40;;;7.80;94.90;;;;;;5089680;23;20754;-77
2021/04/16 01:38:37;;;;;;;7.10;4.03;;;7.80;95.00;;;;;;5088960;23;20461;-78
2021/04/16 01:40:40;;;;;;;4.33;3.30;;;7.80;94.90;;;;;;5098364;23;20437;-77
2021/04/16 01:42:42;;;;;;;4.53;3.23;;;7.80;95.00;;;;;;5147188;22;20498;-80
2021/04/16 01:44:45;;;;;;;3.77;3.20;;;7.70;94.90;;;;;;5167642;23;20507;-80
2021/04/16 01:46:55;;;;;;;6.10;3.33;;;7.70;95.00;;;;;;5166779;23;20482;-80
2021/04/16 01:48:59;;;;;;;5.03;3.50;;;7.70;95.00;;;;;;5167276;23;20454;-80
2021/04/16 01:51:01;;;;;;;4.00;3.33;;;7.60;95.00;;;;;;5176990;23;20932;-83
2021/04/16 01:53:04;;;;;;;3.50;3.03;;;7.60;94.90;;;;;;5167683;23;20422;-84
2021/04/16 01:55:07;;;;;;;5.27;3.37;;;7.50;95.10;;;;;;5176183;23;20457;-83
2021/04/16 01:57:14;;;;;;;3.70;3.13;;;7.50;95.20;;;;;;5176026;23;20465;-84
2021/04/16 01:59:18;;;;;;;3.43;3.13;;;7.50;95.20;;;;;;5164620;23;20428;-82
2021/04/16 02:01:20;;;;;;;5.10;3.20;;;7.50;95.40;;;;;;5175935;23;20428;-83
2021/04/16 02:03:22;;;;;;;4.10;3.47;;;7.50;95.30;;;;;;5167227;23;20458;-83
2021/04/16 02:05:25;;;;;;;5.30;3.20;;;7.50;95.30;;;;;;5166671;23;20770;-84
2021/04/16 02:07:27;;;;;;;4.70;3.40;;;7.50;95.20;;;;;;5167132;23;20441;-82
2021/04/16 02:09:32;;;;;;;7.53;3.50;;;7.60;95.10;;;;;;5167251;23;20744;-83
2021/04/16 02:11:35;;;;;;;3.87;3.00;;;7.60;94.90;;;;;;5166682;23;20440;-82
2021/04/16 02:13:38;;;;;;;4.97;3.30;;;7.60;94.80;;;;;;5174967;23;20420;-83
2021/04/16 02:15:39;;;;;;;5.00;3.23;;;7.60;94.70;;;;;;5166688;23;20423;-82
2021/04/16 02:17:42;;;;;;;6.30;3.43;;;7.60;94.60;;;;;;5166286;23;20782;-82
2021/04/16 02:19:44;;;;;;;3.30;3.00;;;7.50;94.70;;;;;;5167689;23;20480;-83
2021/04/16 02:21:46;;;;;;;4.00;3.50;;;7.50;94.70;;;;;;5167264;23;20433;-83
2021/04/16 02:23:48;;;;;;;4.33;3.20;;;7.50;94.60;;;;;;5175587;23;20451;-83
2021/04/16 02:25:50;;;;;;;3.40;3.10;;;7.40;94.50;;;;;;5174587;23;20470;-84
2021/04/16 02:27:52;;;;;;;3.60;2.93;;;7.40;94.50;;;;;;5164870;23;20451;-83
2021/04/16 02:29:56;;;;;;;3.43;3.13;;;7.40;94.50;;;;;;5174859;23;20967;-82
2021/04/16 02:31:58;;;;;;;3.80;3.40;;;7.30;94.40;;;;;;5175431;23;20743;-82
2021/04/16 02:34:00;;;;;;;3.63;3.10;;;7.40;94.40;;;;;;5167130;23;20452;-82
2021/04/16 02:36:02;;;;;;;6.23;3.40;;;7.40;94.40;;;;;;5167026;23;20459;-84
2021/04/16 02:38:04;;;;;;;5.90;4.73;;;7.30;94.40;;;;;;5166956;23;20452;-83
2021/04/16 02:40:08;;;;;;;5.00;3.37;;;7.30;94.50;;;;;;5168242;23;20961;-83
2021/04/16 02:42:11;;;;;;;4.33;3.00;;;7.30;94.50;;;;;;5167232;23;20460;-83
2021/04/16 02:44:13;;;;;;;3.97;3.20;;;7.30;94.40;;;;;;5167854;23;20974;-83
2021/04/16 02:46:15;;;;;;;4.27;3.43;;;7.40;94.40;;;;;;5166176;23;20456;-84
2021/04/16 02:48:18;;;;;;;5.53;2.87;;;7.40;94.40;;;;;;5166034;23;20957;-84
2021/04/16 02:50:23;;;;;;;6.60;3.73;;;7.30;94.70;;;;;;5167352;23;21050;-83
2021/04/16 02:52:25;;;;;;;8.00;3.57;;;7.40;94.50;;;;;;5167373;23;20954;-82
2021/04/16 02:54:27;;;;;;;3.23;2.93;;;7.40;94.40;;;;;;5166992;23;20456;-84
2021/04/16 02:56:29;;;;;;;4.33;3.50;;;7.40;94.50;;;;;;5167191;23;20448;-83
2021/04/16 02:58:31;;;;;;;4.00;3.60;;;7.40;94.50;;;;;;5166607;23;20776;-83
2021/04/16 03:00:33;;;;;;;4.47;3.47;;;7.30;94.40;;;;;;5167765;23;20459;-84
2021/04/16 03:02:36;;;;;;;4.30;3.40;;;7.30;94.50;;;;;;5167657;23;20431;-85
2021/04/16 03:04:38;;;;;;;4.13;3.43;;;7.30;94.80;;;;;;5168587;23;20539;-84
2021/04/16 03:06:40;;;;;;;3.63;3.10;;;7.30;94.70;;;;;;5170331;23;20422;-84
2021/04/16 03:08:42;;;;;;;5.07;3.70;;;7.30;94.50;;;;;;5171069;23;20451;-83
2021/04/16 03:10:44;;;;;;;5.13;3.50;;;7.20;94.50;;;;;;5168243;23;20458;-83
2021/04/16 03:12:46;;;;;;;3.70;3.10;;;7.20;94.50;;;;;;5167481;23;20510;-83
2021/04/16 03:14:48;;;;;;;4.93;3.57;;;7.20;94.70;;;;;;5167184;23;20472;-83
2021/04/16 03:16:50;;;;;;;4.77;3.17;;;7.20;94.70;;;;;;5175238;23;20501;-83
2021/04/16 03:18:54;;;;;;;6.80;4.10;;;7.30;94.80;;;;;;5174852;23;20834;-80
2021/04/16 03:20:56;;;;;;;4.73;3.60;;;7.40;94.80;;;;;;5167818;23;20901;-82
2021/04/16 03:22:58;;;;;;;5.40;3.80;;;7.40;94.80;;;;;;5167176;23;20451;-82
2021/04/16 03:25:00;;;;;;;6.53;4.13;;;7.40;94.90;;;;;;5167003;23;20460;-83
2021/04/16 03:27:02;;;;;;;5.80;3.87;;;7.40;94.80;;;;;;5175274;23;20426;-83
2021/04/16 03:29:04;;;;;;;6.43;4.90;;;7.50;94.70;;;;;;5166638;23;20455;-83
2021/04/16 03:31:07;;;;;;;6.77;5.17;;;7.40;94.70;;;;;;5167179;23;20456;-83
2021/04/16 03:33:09;;;;;;;9.03;5.20;;;7.40;94.80;;;;;;5167050;23;20448;-81
2021/04/16 03:35:14;;;;;;;9.83;4.50;;;7.40;94.90;;;;;;5176184;23;20455;-81
2021/04/16 03:37:15;;;;;;;7.93;6.13;;;7.40;94.90;;;;;;5167485;23;20448;-85
2021/04/16 03:39:17;;;;;;;8.90;5.83;;;7.40;95.00;;;;;;5167530;23;20452;-82
2021/04/16 03:41:20;;;;;;;7.00;5.00;;;7.30;95.00;;;;;;5167990;23;20426;-83
2021/04/16 03:43:22;;;;;;;7.23;5.90;;;7.30;95.10;;;;;;5176143;23;20426;-83
2021/04/16 03:45:25;;;;;;;9.37;5.83;;;7.30;95.10;;;;;;5167866;23;20452;-83
2021/04/16 03:47:26;;;;;;;11.00;6.30;;;7.30;95.20;;;;;;5166506;23;21101;-83
2021/04/16 03:49:31;;;;;;;7.73;5.87;;;7.30;95.20;;;;;;5167336;23;20452;-83
2021/04/16 03:51:52;;;;;;;6.53;4.90;;;7.20;95.30;;;;;;5167578;23;20531;-84
2021/04/16 03:53:54;;;;;;;8.77;4.57;;;7.20;95.30;;;;;;5167899;23;20422;-83
2021/04/16 03:55:56;;;;;;;8.30;5.20;;;7.10;95.30;;;;;;5171045;23;20433;-85
2021/04/16 03:57:58;;;;;;;8.20;5.83;;;7.10;95.40;;;;;;5176691;23;20462;-84
2021/04/16 04:00:00;;;;;;;12.13;5.33;;;7.10;95.40;;;;;;5172808;23;20483;-84
2021/04/16 04:02:02;;;;;;;11.23;7.60;;;7.10;95.60;;;;;;5173635;23;20458;-82
2021/04/16 04:04:05;;;;;;;19.93;9.50;;;7.10;95.50;;;;;;5174201;23;20462;-83
2021/04/16 04:06:07;;;;;;;14.73;7.90;;;7.10;95.50;;;;;;5171310;23;20455;-82
2021/04/16 04:08:11;;;;;;;6.60;4.90;;;7.00;95.70;;;;;;5169123;23;20423;-82
2021/04/16 04:10:13;;;;;;;8.17;5.07;;;7.00;95.70;;;;;;5169900;23;20852;-83
2021/04/16 04:12:15;;;;;;;7.13;4.10;;;7.00;95.90;;;;;;5171567;23;20485;-82
2021/04/16 04:14:17;;;;;;;8.00;5.20;;;6.80;96.10;;;;;;5168780;23;20479;-82
2021/04/16 04:16:19;;;;;;;7.20;4.37;;;6.70;96.70;;;;;;5169232;23;20486;-83
2021/04/16 04:18:21;;;;;;;8.77;4.90;;;6.70;96.90;;;;;;5177530;23;20414;-82
2021/04/16 04:20:26;;;;;;;7.30;4.80;;;6.70;97.00;;;;;;5170775;23;20456;-82
2021/04/16 04:22:28;;;;;;;6.10;4.50;;;6.60;97.40;;;;;;5172360;23;20913;-82
2021/04/16 04:24:30;;;;;;;6.07;4.37;;;6.60;97.60;;;;;;5180469;23;20546;-80
2021/04/16 04:26:32;;;;;;;6.07;4.93;;;6.50;97.70;;;;;;5170250;23;20776;-81
2021/04/16 04:28:34;;;;;;;7.67;4.57;;;6.50;97.90;;;;;;5170770;23;20452;-83
2021/04/16 04:30:37;;;;;;;5.60;4.30;;;6.50;97.90;;;;;;5177720;23;20990;-83
2021/04/16 04:32:39;;;;;;;8.23;4.80;;;6.50;97.90;;;;;;5176336;23;20422;-82
2021/04/16 04:34:41;;;;;;;5.80;4.30;;;6.50;98.00;;;;;;5170306;23;20975;-83
2021/04/16 04:36:43;;;;;;;6.10;4.07;;;6.50;98.00;;;;;;5169341;23;20512;-82
2021/04/16 04:38:45;;;;;;;6.43;4.87;;;6.50;98.20;;;;;;5169247;23;20426;-84
2021/04/16 04:40:50;;;;;;;6.53;4.20;;;6.50;98.10;;;;;;5178556;23;20470;-84
2021/04/16 04:42:52;;;;;;;5.03;4.10;;;6.40;98.30;;;;;;5169729;23;20463;-82
2021/04/16 04:44:54;;;;;;;8.53;5.27;;;6.50;98.20;;;;;;5178662;23;20507;-83
2021/04/16 04:46:56;;;;;;;7.90;4.87;;;6.50;98.30;;;;;;5178339;23;20458;-83
2021/04/16 04:48:58;;;;;;;10.70;7.07;;;6.50;98.30;;;;;;5171088;23;20447;-83
2021/04/16 04:51:00;;;;;;;18.67;10.80;;;6.50;98.30;;;;;;5181141;23;20456;-82
2021/04/16 04:53:02;;;;;;;8.87;6.73;;;6.50;98.30;;;;;;5179227;23;20820;-82
2021/04/16 04:55:07;;;;;;;9.10;6.80;;;6.50;98.20;;;;;;5178780;23;20447;-84
2021/04/16 04:57:10;;;;;;;10.03;5.27;;;6.50;98.20;;;;;;5178546;23;20905;-82
2021/04/16 04:59:11;;;;;;;8.10;5.10;;;6.60;98.10;;;;;;5170085;23;20455;-83
2021/04/16 05:01:13;;;;;;;7.87;5.50;;;6.60;98.10;;;;;;5171033;23;20820;-81
2021/04/16 05:03:15;;;;;;;5.93;4.40;;;6.60;98.20;;;;;;5171214;23;20423;-81
2021/04/16 05:05:20;;;;;;;6.10;4.50;;;6.60;98.20;;;;;;5179738;23;20482;-81
2021/04/16 05:07:22;;;;;;;6.30;4.87;;;6.60;98.20;;;;;;5179501;23;20451;-80
2021/04/16 05:09:23;;;;;;;5.87;5.30;;;6.60;98.10;;;;;;5171067;23;20456;-80
2021/04/16 05:11:25;;;;;;;7.80;4.60;;;6.70;98.10;;;;;;5171043;23;20451;-81
2021/04/16 05:13:28;;;;;;;7.40;4.80;;;6.60;98.30;;;;;;5178232;23;20427;-83
2021/04/16 05:15:31;;;;;;;6.40;4.50;;;6.60;98.30;;;;;;5169408;23;20547;-82
2021/04/16 05:17:33;;;;;;;4.90;4.33;;;6.60;98.30;;;;;;5169324;23;21197;-82
2021/04/16 05:19:35;;;;;;;5.70;4.70;;;6.70;98.30;;;;;;5172480;23;20534;-83
2021/04/16 05:21:39;;;;;;;6.33;4.33;;;6.60;98.30;;;;;;5172164;23;20780;-83
2021/04/16 05:23:40;;;;;;;5.90;4.60;;;6.70;98.30;;;;;;5172157;23;20490;-79
2021/04/16 05:25:42;;;;;;;10.50;5.03;;;6.70;98.30;;;;;;5180909;23;20429;-83
2021/04/16 05:27:44;;;;;;;7.27;4.60;;;6.50;98.30;;;;;;5180579;23;20447;-84
2021/04/16 05:29:47;;;;;;;10.27;4.83;;;6.40;98.30;;;;;;5172444;23;20461;-83
2021/04/16 05:31:49;;;;;;;7.67;4.97;;;6.50;98.30;;;;;;5171903;23;20463;-82
2021/04/16 05:33:51;;;;;;;7.43;4.27;;;6.50;98.30;;;;;;5171975;23;20479;-82
2021/04/16 05:35:53;;;;;;;7.73;5.10;;;6.60;98.30;;;;;;5171416;23;20458;-83
2021/04/16 05:37:57;;;;;;;4.87;4.33;;;6.60;98.30;;;;;;5180245;23;20415;-83
2021/04/16 05:39:59;;;;;;;6.77;4.60;;;6.70;98.30;;;;;;5172106;23;20498;-80
2021/04/16 05:42:00;;;;;;;7.40;5.20;;;6.80;98.30;;;;;;5173121;23;20526;-81
2021/04/16 05:44:02;;;;;;;5.97;4.90;;;6.80;98.30;;;;;;5181134;23;20451;-80
2021/04/16 05:46:05;;;;;;;11.73;5.27;;;6.80;98.30;;;;;;5171757;23;20448;-81
2021/04/16 05:48:08;;;;;;;5.60;4.60;;;6.80;98.30;;;;;;5170175;23;20542;-80
2021/04/16 05:50:13;;;;;;;7.60;5.17;;;6.90;98.30;;;;;;5167845;23;20448;-82
2021/04/16 05:52:15;;;;;;;13.60;5.07;;;6.90;98.30;;;;;;5176366;23;20449;-81
2021/04/16 05:54:17;;;;;;;10.83;5.20;;;6.90;98.30;;;;;;5177229;23;20451;-82
2021/04/16 05:56:19;;;;;;;12.60;5.70;;;7.00;98.30;;;;;;5176160;23;20788;-81
2021/04/16 05:58:21;;;;;;;5.17;4.57;;;7.00;98.30;;;;;;5168242;23;20456;-81
2021/04/16 06:00:26;;;;;;;10.10;5.30;;;6.90;98.30;;;;;;5170199;23;20988;-81
2021/04/16 06:02:32;;;;;;;6.43;4.57;;;6.90;98.30;;;;;;5180124;23;20468;-82
2021/04/16 06:04:34;;;;;;;7.50;5.00;;;6.80;98.30;;;;;;5172616;23;20779;-83
2021/04/16 06:06:55;;;;;;;6.00;4.20;;;6.80;98.30;;;;;;5179632;23;20443;-82
2021/04/16 06:08:57;;;;;;;5.20;4.17;;;6.80;98.30;;;;;;5169501;23;21139;-81
2021/04/16 06:10:59;;;;;;;5.83;4.63;;;6.80;98.30;;;;;;5177393;23;20789;-81
2021/04/16 06:13:01;;;;;;;8.50;4.83;;;6.70;98.30;;;;;;5169178;23;20466;-82
2021/04/16 06:15:05;;;;;;;7.33;5.10;;;6.80;98.30;;;;;;5168741;23;20437;-81
2021/04/16 06:17:07;;;;;;;7.00;4.70;;;6.80;98.30;;;;;;5169444;23;20433;-81
2021/04/16 06:19:09;;;;;;;5.57;4.57;;;6.80;98.30;;;;;;5168705;23;20448;-82
2021/04/16 06:21:11;;;;;;;9.67;5.07;;;6.90;98.30;;;;;;5175311;23;20654;-82
2021/04/16 06:23:14;;;;;;;6.40;4.90;;;6.90;98.30;;;;;;5172455;23;20539;-83
2021/04/16 06:25:18;;;;;;;8.50;4.70;;;6.90;98.30;;;;;;5176142;23;20975;-82
2021/04/16 06:27:20;;;;;;;11.67;6.97;;;7.00;98.30;;;;;;5174663;23;20452;-83
2021/04/16 06:29:22;;;;;;;12.73;6.63;;;7.00;98.30;;;;;;5175629;23;20448;-82
2021/04/16 06:31:24;;;;;;;11.70;6.73;;;7.00;98.30;;;;;;5176219;23;21077;-83
2021/04/16 06:33:28;;;;;;;10.13;6.40;;;7.20;98.30;;;;;;5167965;23;20425;-85
2021/04/16 06:35:33;;;;;;;10.47;5.80;;;7.30;98.30;;;;;;5166275;23;20912;-82
2021/04/16 06:37:47;;;;;;;;;;;;;;;;;;;;;
2021/04/16 06:39:52;;;;;;;7.97;5.30;;;7.40;98.30;;;;;;5174469;23;20955;-82
2021/04/16 06:41:54;;;;;;;9.87;6.13;;;7.50;98.30;;;;;;5175356;23;20513;-83
2021/04/16 06:44:00;;;;;;;10.87;6.80;;;7.60;98.30;;;;;;5175068;23;20426;-83
2021/04/16 06:46:02;;;;;;;6.33;4.87;;;7.80;98.30;;;;;;5174508;23;20486;-82
2021/04/16 06:48:07;;;;;;;7.83;5.23;;;7.80;98.30;;;;;;5165694;23;20507;-83
2021/04/16 06:50:13;;;;;;;8.87;5.37;;;8.00;98.30;;;;;;5175579;23;20748;-82
2021/04/16 06:52:20;;;;;;;7.53;5.00;;;8.10;98.30;;;;;;5167043;23;20460;-81
2021/04/16 06:54:27;;;;;;;7.57;5.20;;;8.20;98.30;;;;;;5167086;23;20751;-83
2021/04/16 06:56:34;;;;;;;8.00;5.50;;;8.30;98.30;;;;;;5174830;23;20456;-83
2021/04/16 06:58:42;;;;;;;6.20;4.90;;;8.40;98.30;;;;;;5174563;23;20559;-83
2021/04/16 07:00:48;;;;;;;6.73;5.60;;;8.50;98.30;;;;;;5174673;23;20447;-82
2021/04/16 07:02:54;;;;;;;7.30;5.23;;;8.60;98.30;;;;;;5175079;23;20420;-83
2021/04/16 07:04:59;;;;;;;7.10;5.30;;;8.60;98.30;;;;;;5174361;23;20455;-83
2021/04/16 07:07:07;;;;;;;7.10;5.43;;;8.60;98.30;;;;;;5166916;23;21004;-81
2021/04/16 07:09:12;;;;;;;7.97;5.33;;;8.60;98.30;;;;;;5165789;23;20514;-82
2021/04/16 07:11:23;;;;;;;8.73;5.10;;;8.50;98.30;;;;;;5166337;23;20429;-82
2021/04/16 07:13:34;;;;;;;9.00;6.17;;;8.30;98.30;;;;;;5166888;23;20477;-83
2021/04/16 07:15:41;;;;;;;7.73;4.73;;;8.30;98.30;;;;;;5166201;23;20496;-83
2021/04/16 07:17:46;;;;;;;9.13;6.10;;;8.40;98.30;;;;;;5174538;23;20799;-83
2021/04/16 07:19:50;;;;;;;6.50;5.13;;;8.60;98.30;;;;;;5167218;23;20448;-83
2021/04/16 07:21:57;;;;;;;13.23;5.70;;;8.80;98.30;;;;;;5166936;23;20453;-83
2021/04/16 07:24:03;;;;;;;11.60;5.40;;;9.00;98.20;;;;;;5167778;23;20448;-83
2021/04/16 07:26:19;;;;;;;11.93;5.83;;;9.00;97.30;;;;;;5175454;23;20482;-84
2021/04/16 07:28:41;;;;;;;5.87;4.90;;;9.10;96.70;;;;;;5166737;23;20448;-84
2021/04/16 07:30:46;;;;;;;6.97;4.97;;;9.20;95.90;;;;;;5166508;23;20478;-83
2021/04/16 07:32:50;;;;;;;6.73;4.63;;;9.20;94.60;;;;;;5166305;23;21000;-84
2021/04/16 07:34:59;;;;;;;14.00;5.07;;;9.20;94.90;;;;;;5174467;23;21027;-83
2021/04/16 07:37:11;;;;;;;6.00;4.57;;;9.40;94.90;;;;;;5174680;23;20530;-83
2021/04/16 07:39:43;;;;;;;6.77;4.67;;;9.50;94.40;;;;;;5174976;23;20448;-83
2021/04/16 07:41:48;;;;;;;6.43;4.93;;;9.60;93.50;;;;;;5175960;23;20503;-84
2021/04/16 07:43:52;;;;;;;6.07;4.60;;;9.90;93.20;;;;;;5178574;23;20444;-83
2021/04/16 07:45:57;;;;;;;5.53;3.90;;;10.00;92.60;;;;;;5169809;23;20458;-83
2021/04/16 07:48:20;;;;;;;5.20;3.90;;;10.00;90.00;;;;;;5169890;23;20816;-83
2021/04/16 07:50:29;;;;;;;68.43;35.47;;;10.00;90.30;;;;;;5179848;23;20824;-83
2021/04/16 07:52:33;;;;;;;29.60;18.97;;;10.10;91.10;;;;;;5171960;23;20551;-83
2021/04/16 07:54:38;;;;;;;8.60;5.57;;;10.30;91.50;;;;;;5182540;23;20429;-83
2021/04/16 07:56:41;;;;;;;9.60;5.57;;;10.40;89.30;;;;;;5181219;23;20436;-83
2021/04/16 07:58:44;;;;;;;8.37;4.90;;;10.40;88.60;;;;;;5188459;23;21016;-83
2021/04/16 08:00:49;;;;;;;5.90;3.90;;;10.50;87.80;;;;;;5186873;23;20452;-83
2021/04/16 08:02:54;;;;;;;6.60;4.27;;;10.50;87.10;;;;;;5169707;23;20852;-82
2021/04/16 08:04:57;;;;;;;6.97;4.17;;;10.40;86.60;;;;;;5169469;23;20455;-82
2021/04/16 08:07:16;;;;;;;13.03;8.40;;;10.30;87.60;;;;;;5178007;23;20452;-83
2021/04/16 08:09:29;;;;;;;17.93;10.43;;;10.50;87.50;;;;;;5177659;23;21164;-82
2021/04/16 08:11:33;;;;;;;7.93;5.40;;;10.60;86.70;;;;;;5169361;23;20764;-83
2021/04/16 08:13:37;;;;;;;7.00;3.80;;;10.70;85.80;;;;;;5170024;23;20451;-82
2021/04/16 08:15:45;;;;;;;4.97;3.40;;;10.50;85.00;;;;;;5169870;23;20457;-83
2021/04/16 08:17:47;;;;;;;4.53;3.37;;;10.50;83.00;;;;;;5177977;23;20443;-83
2021/04/16 08:19:50;;;;;;;3.67;2.83;;;10.50;82.50;;;;;;5171029;23;20452;-83
2021/04/16 08:21:56;;;;;;;9.43;5.67;;;10.60;81.80;;;;;;5171202;23;20448;-83
2021/04/16 08:24:00;;;;;;;12.47;7.53;;;10.60;81.90;;;;;;5172835;23;20451;-82
2021/04/16 08:26:09;;;;;;;10.57;6.80;;;10.80;81.60;;;;;;5179122;23;20531;-83
2021/04/16 08:28:15;;;;;;;4.90;3.30;;;10.80;80.40;;;;;;5174761;23;20792;-82
2021/04/16 08:30:22;;;;;;;3.93;3.10;;;10.90;80.20;;;;;;5179915;23;20550;-83
2021/04/16 08:32:31;;;;;;;3.83;3.17;;;11.00;81.10;;;;;;5180817;23;20452;-83
2021/04/16 08:34:40;;;;;;;4.60;3.20;;;11.20;80.60;;;;;;5172406;23;20852;-84
2021/04/16 08:36:43;;;;;;;3.50;2.90;;;11.30;80.50;;;;;;5171964;23;20451;-82
2021/04/16 08:38:54;;;;;;;3.13;2.63;;;11.30;78.80;;;;;;5172128;23;20452;-83
2021/04/16 08:41:00;;;;;;;3.80;3.40;;;11.40;79.50;;;;;;5179158;23;20526;-83
2021/04/16 08:43:03;;;;;;;3.47;2.97;;;11.50;78.90;;;;;;5175632;23;20462;-83
2021/04/16 08:45:10;;;;;;;3.33;3.03;;;11.40;78.00;;;;;;5182143;23;20454;-83
2021/04/16 08:47:23;;;;;;;3.90;2.80;;;11.50;78.80;;;;;;5166658;23;20509;-82
2021/04/16 08:49:29;;;;;;;3.57;2.90;;;11.60;78.00;;;;;;5166616;23;20451;-83
2021/04/16 08:51:35;;;;;;;4.53;3.10;;;11.70;78.00;;;;;;5176523;23;20455;-83
2021/04/16 08:53:39;;;;;;;3.43;3.13;;;11.60;77.80;;;;;;5169443;23;20542;-83
2021/04/16 08:55:43;;;;;;;4.83;3.13;;;11.70;78.50;;;;;;5170480;23;20750;-83
2021/04/16 08:57:51;;;;;;;5.27;3.20;;;11.90;77.70;;;;;;5178198;23;20535;-83
2021/04/16 09:00:00;;;;;;;5.20;2.90;;;11.90;76.30;;;;;;5178974;23;20929;-83
2021/04/16 09:02:15;;;;;;;3.70;2.80;;;12.00;77.00;;;;;;5181589;23;20460;-83
2021/04/16 09:04:24;;;;;;;5.60;3.20;;;12.00;76.90;;;;;;5172147;23;20524;-83
2021/04/16 09:06:45;;;;;;;7.83;4.97;;;12.20;76.00;;;;;;5172738;23;20487;-83
2021/04/16 09:08:48;;;;;;;17.40;9.60;;;12.20;75.30;;;;;;5172523;23;20469;-83
2021/04/16 09:10:52;;;;;;;4.37;3.67;;;12.40;75.40;;;;;;5181665;23;20450;-83
2021/04/16 09:12:55;;;;;;;3.07;2.77;;;12.40;75.00;;;;;;5180392;23;20436;-83
2021/04/16 09:14:58;;;;;;;3.03;2.70;;;12.40;74.20;;;;;;5172527;23;20486;-83
2021/04/16 09:17:01;;;;;;;2.87;2.30;;;12.40;74.80;;;;;;5180535;23;20444;-83
2021/04/16 09:19:41;;;;;;;3.70;2.60;;;12.60;74.00;;;;;;5172791;23;20458;-83
2021/04/16 09:22:22;;;;;;;3.00;2.70;;;12.60;73.90;;;;;;5180469;23;20451;-83
2021/04/16 09:24:44;;;;;;;3.23;2.93;;;12.60;73.60;;;;;;5172710;23;20455;-83
2021/04/16 09:26:57;;;;;;;4.40;3.97;;;12.70;73.50;;;;;;5172401;23;20483;-83
2021/04/16 09:28:59;;;;;;;3.87;3.17;;;12.70;73.10;;;;;;5171485;23;20486;-83
2021/04/16 09:31:03;;;;;;;3.53;2.80;;;12.90;73.30;;;;;;5175451;23;20816;-82
2021/04/16 09:33:20;;;;;;;3.17;2.87;;;12.90;72.10;;;;;;5165519;23;20455;-82
2021/04/16 09:35:53;;;;;;;13.00;9.80;;;12.60;72.30;;;;;;5165261;23;20456;-82
2021/04/16 09:38:34;;;;;;;9.57;5.40;;;12.90;73.50;;;;;;5165081;23;20448;-85
2021/04/16 09:40:36;;;;;;;17.03;10.40;;;13.30;72.70;;;;;;5165589;23;20538;-82
2021/04/16 09:42:42;;;;;;;3.63;3.00;;;13.30;70.60;;;;;;5165655;23;20792;-82
2021/04/16 09:44:54;;;;;;;3.77;3.20;;;13.10;70.40;;;;;;5175156;23;20444;-82
2021/04/16 09:46:59;;;;;;;3.60;3.10;;;12.70;71.40;;;;;;5166354;23;20462;-81
2021/04/16 09:49:04;;;;;;;3.10;2.80;;;12.80;72.70;;;;;;5173938;23;20816;-82
2021/04/16 09:51:29;;;;;;;3.57;3.20;;;13.10;71.70;;;;;;5165646;23;20448;-82
2021/04/16 09:53:32;;;;;;;15.63;10.60;;;13.10;71.40;;;;;;5165738;23;20454;-82
2021/04/16 09:55:48;;;;;;;9.60;6.00;;;13.50;72.00;;;;;;5164439;23;20498;-82
2021/04/16 09:57:50;;;;;;;5.20;4.00;;;13.60;70.60;;;;;;5164247;23;20448;-82
2021/04/16 09:59:54;;;;;;;3.87;2.80;;;13.70;70.00;;;;;;5173205;23;20474;-82
2021/04/16 10:02:34;;;;;;;3.90;2.70;;;13.70;68.80;;;;;;5164753;23;20452;-82
2021/04/16 10:04:50;;;;;;;3.53;2.80;;;13.60;69.70;;;;;;5166877;23;20758;-82
2021/04/16 10:06:56;;;;;;;4.40;2.70;;;13.80;69.50;;;;;;5175818;23;20447;-83
2021/04/16 10:09:19;;;;;;;3.90;3.23;;;13.70;69.10;;;;;;5167888;23;20477;-83
2021/04/16 10:11:20;;;;;;;5.20;2.50;;;13.80;68.70;;;;;;5175791;23;20455;-83
2021/04/16 10:13:26;;;;;;;3.30;2.60;;;13.70;67.90;;;;;;5176291;23;20458;-83
2021/04/16 10:15:35;;;;;;;3.23;2.93;;;13.80;68.30;;;;;;5176230;23;20457;-83
2021/04/16 10:17:37;;;;;;;4.07;2.83;;;13.70;67.50;;;;;;5167501;23;20509;-83
2021/04/16 10:19:42;;;;;;;4.03;2.50;;;13.80;68.70;;;;;;5167680;23;20789;-83
2021/04/16 10:21:44;;;;;;;3.37;2.80;;;14.20;68.20;;;;;;5176593;23;20830;-83
2021/04/16 10:23:49;;;;;;;3.33;2.70;;;14.40;67.00;;;;;;5168659;23;20975;-83
2021/04/16 12:39:26;;;;;;;4.93;3.23;;;19.90;56.80;;;;;;5170910;23;20482;-84
2021/04/16 12:41:30;;;;;;;5.23;4.00;;;20.60;56.90;;;;;;5180426;23;20512;-84
2021/04/16 12:43:34;;;;;;;7.00;4.50;;;20.50;56.80;;;;;;5170430;23;20451;-84
2021/04/16 12:45:36;;;;;;;4.37;3.70;;;20.80;57.70;;;;;;5170124;23;21269;-84
2021/04/16 12:47:38;;;;;;;3.93;3.30;;;20.90;56.00;;;;;;5170499;23;20491;-84
2021/04/16 12:49:41;;;;;;;4.90;3.70;;;20.80;54.60;;;;;;5170146;23;20452;-84
2021/04/16 12:51:43;;;;;;;3.57;3.03;;;20.90;54.60;;;;;;5177293;23;20479;-84
2021/04/16 12:53:44;;;;;;;2.60;2.23;;;21.00;54.30;;;;;;5168552;23;20538;-84
2021/04/16 12:55:48;;;;;;;4.00;2.63;;;21.00;53.60;;;;;;5177334;23;20558;-84
2021/04/16 12:57:52;;;;;;;7.10;3.83;;;21.00;53.80;;;;;;5168084;23;20458;-84
2021/04/16 12:59:54;;;;;;;4.93;3.50;;;21.00;54.40;;;;;;5169201;23;21011;-84
2021/04/16 13:01:56;;;;;;;8.83;5.83;;;21.00;55.10;;;;;;5176889;23;20794;-84
2021/04/16 13:03:59;;;;;;;4.93;4.03;;;21.50;54.90;;;;;;5169131;23;20452;-84
2021/04/16 13:06:02;;;;;;;9.70;8.50;;;21.60;53.00;;;;;;5167919;23;20466;-84
2021/04/16 13:08:05;;;;;;;4.67;4.17;;;21.40;54.10;;;;;;5171794;23;20459;-84
2021/04/16 13:10:08;;;;;;;4.40;3.90;;;21.70;54.50;;;;;;5168388;23;20448;-84